sensor_id;sensor_type;location;lat;lon;timestamp;pressure;altitude;pressure_sealevel;temperature;humidity
69247;BME280;56358;56.328;43.992;2023-05-09T00:01:53;102194.25;;;2.83;64.77
69247;BME280;56358;56.328;43.992;2023-05-09T00:03:53;102188.16;;;2.78;64.47
69247;BME280;56358;56.328;43.992;2023-05-09T00:05:54;102185.66;;;2.72;64.37
69247;BME280;56358;56.328;43.992;2023-05-09T00:07:55;102206.66;;;2.80;64.78
69247;BME280;56358;56.328;43.992;2023-05-09T00:09:56;102116.59;;;2.31;64.21
69247;BME280;56358;56.328;43.992;2023-05-09T00:11:57;102227.09;;;2.75;64.69
69247;BME280;56358;56.328;43.992;2023-05-09T00:13:58;102165.63;;;2.54;64.43
69247;BME280;56358;56.328;43.992;2023-05-09T00:15:59;102192.84;;;2.64;64.53
69247;BME280;56358;56.328;43.992;2023-05-09T00:18:00;102202.50;;;2.68;64.77
69247;BME280;56358;56.328;43.992;2023-05-09T00:20:01;102157.81;;;2.46;64.38
69247;BME280;56358;56.328;43.992;2023-05-09T00:22:05;102134.34;;;2.28;64.78
69247;BME280;56358;56.328;43.992;2023-05-09T00:24:05;102136.97;;;2.26;64.59
69247;BME280;56358;56.328;43.992;2023-05-09T00:26:06;102206.94;;;2.66;64.70
69247;BME280;56358;56.328;43.992;2023-05-09T00:28:07;102199.13;;;2.57;64.54
69247;BME280;56358;56.328;43.992;2023-05-09T00:30:08;102201.72;;;2.61;64.83
69247;BME280;56358;56.328;43.992;2023-05-09T00:32:09;102182.53;;;2.47;64.66
69247;BME280;56358;56.328;43.992;2023-05-09T00:34:10;102199.22;;;2.50;64.17
69247;BME280;56358;56.328;43.992;2023-05-09T00:36:11;102163.44;;;2.26;64.27
69247;BME280;56358;56.328;43.992;2023-05-09T00:38:12;102201.97;;;2.46;64.43
69247;BME280;56358;56.328;43.992;2023-05-09T00:40:13;102210.78;;;2.45;64.64
69247;BME280;56358;56.328;43.992;2023-05-09T00:42:14;102197.69;;;2.39;64.54
69247;BME280;56358;56.328;43.992;2023-05-09T00:44:15;102197.75;;;2.34;64.38
69247;BME280;56358;56.328;43.992;2023-05-09T00:46:16;102201.09;;;2.45;64.46
69247;BME280;56358;56.328;43.992;2023-05-09T00:48:17;102200.31;;;2.39;64.50
69247;BME280;56358;56.328;43.992;2023-05-09T00:50:18;102202.00;;;2.44;64.25
69247;BME280;56358;56.328;43.992;2023-05-09T00:52:19;102198.47;;;2.42;64.37
69247;BME280;56358;56.328;43.992;2023-05-09T00:54:25;102207.34;;;2.41;64.36
69247;BME280;56358;56.328;43.992;2023-05-09T00:56:26;102211.03;;;2.31;64.33
69247;BME280;56358;56.328;43.992;2023-05-09T00:58:27;102206.56;;;2.34;64.65
69247;BME280;56358;56.328;43.992;2023-05-09T01:00:28;102201.31;;;2.31;64.53
69247;BME280;56358;56.328;43.992;2023-05-09T01:02:29;102198.66;;;2.31;64.56
69247;BME280;56358;56.328;43.992;2023-05-09T01:04:31;102212.78;;;2.32;64.40
69247;BME280;56358;56.328;43.992;2023-05-09T01:07:03;102173.31;;;2.16;64.13
69247;BME280;56358;56.328;43.992;2023-05-09T01:09:18;102198.66;;;2.31;63.88
69247;BME280;56358;56.328;43.992;2023-05-09T01:11:30;102069.28;;;1.57;63.94
69247;BME280;56358;56.328;43.992;2023-05-09T01:13:40;102208.31;;;2.34;63.74
69247;BME280;56358;56.328;43.992;2023-05-09T01:16:11;102214.47;;;2.36;63.73
69247;BME280;56358;56.328;43.992;2023-05-09T01:18:22;102142.66;;;2.03;63.43
69247;BME280;56358;56.328;43.992;2023-05-09T01:20:32;102203.06;;;2.32;63.43
69247;BME280;56358;56.328;43.992;2023-05-09T01:22:35;102216.97;;;2.44;63.39
69247;BME280;56358;56.328;43.992;2023-05-09T01:29:16;102122.63;;;1.87;63.99
69247;BME280;56358;56.328;43.992;2023-05-09T01:31:22;102136.53;;;1.99;64.31
69247;BME280;56358;56.328;43.992;2023-05-09T01:33:25;102221.31;;;2.49;64.93
69247;BME280;56358;56.328;43.992;2023-05-09T01:35:29;102215.09;;;2.50;65.36
69247;BME280;56358;56.328;43.992;2023-05-09T01:37:35;102215.97;;;2.53;65.74
69247;BME280;56358;56.328;43.992;2023-05-09T01:39:42;102233.59;;;2.55;66.77
69247;BME280;56358;56.328;43.992;2023-05-09T01:41:45;102212.44;;;2.54;67.20
69247;BME280;56358;56.328;43.992;2023-05-09T01:43:46;102222.91;;;2.60;67.14
69247;BME280;56358;56.328;43.992;2023-05-09T01:45:48;102218.44;;;2.63;67.35
69247;BME280;56358;56.328;43.992;2023-05-09T01:47:52;102228.97;;;2.66;67.09
69247;BME280;56358;56.328;43.992;2023-05-09T01:49:54;102228.09;;;2.66;67.13
69247;BME280;56358;56.328;43.992;2023-05-09T01:51:56;102212.16;;;2.69;66.90
69247;BME280;56358;56.328;43.992;2023-05-09T01:53:58;102203.44;;;2.62;66.69
69247;BME280;56358;56.328;43.992;2023-05-09T01:56:03;102187.66;;;2.58;66.34
69247;BME280;56358;56.328;43.992;2023-05-09T01:58:05;102207.63;;;2.77;66.17
69247;BME280;56358;56.328;43.992;2023-05-09T02:00:07;102204.91;;;2.80;66.13
69247;BME280;56358;56.328;43.992;2023-05-09T02:02:09;102200.59;;;2.75;65.63
69247;BME280;56358;56.328;43.992;2023-05-09T02:04:12;102212.56;;;2.97;65.45
69247;BME280;56358;56.328;43.992;2023-05-09T02:06:16;102219.50;;;3.05;65.00
69247;BME280;56358;56.328;43.992;2023-05-09T02:08:18;102217.56;;;3.13;64.66
69247;BME280;56358;56.328;43.992;2023-05-09T02:10:21;102213.03;;;3.19;64.29
69247;BME280;56358;56.328;43.992;2023-05-09T02:12:25;102213.81;;;3.25;63.67
69247;BME280;56358;56.328;43.992;2023-05-09T02:14:26;102142.88;;;2.92;63.42
69247;BME280;56358;56.328;43.992;2023-05-09T02:16:27;102214.31;;;3.44;63.25
69247;BME280;56358;56.328;43.992;2023-05-09T02:18:28;102118.97;;;2.95;63.13
69247;BME280;56358;56.328;43.992;2023-05-09T02:20:29;102217.53;;;3.60;62.94
69247;BME280;56358;56.328;43.992;2023-05-09T02:22:29;102214.69;;;3.69;62.85
69247;BME280;56358;56.328;43.992;2023-05-09T02:24:32;102223.31;;;3.79;62.59
69247;BME280;56358;56.328;43.992;2023-05-09T02:26:34;102212.66;;;3.82;62.42
69247;BME280;56358;56.328;43.992;2023-05-09T02:28:35;102238.00;;;3.94;62.25
69247;BME280;56358;56.328;43.992;2023-05-09T02:30:42;102239.59;;;4.02;62.12
69247;BME280;56358;56.328;43.992;2023-05-09T02:32:46;102222.63;;;4.10;61.81
69247;BME280;56358;56.328;43.992;2023-05-09T02:34:50;102226.91;;;4.17;61.71
69247;BME280;56358;56.328;43.992;2023-05-09T02:36:51;102224.00;;;4.28;61.37
69247;BME280;56358;56.328;43.992;2023-05-09T02:38:52;102168.81;;;4.03;61.13
69247;BME280;56358;56.328;43.992;2023-05-09T02:40:53;102216.72;;;4.36;60.88
69247;BME280;56358;56.328;43.992;2023-05-09T02:42:55;102232.34;;;4.48;60.92
69247;BME280;56358;56.328;43.992;2023-05-09T02:44:56;102236.63;;;4.56;60.48
69247;BME280;56358;56.328;43.992;2023-05-09T02:46:56;102232.88;;;4.63;59.81
69247;BME280;56358;56.328;43.992;2023-05-09T02:48:57;102222.16;;;4.66;58.35
69247;BME280;56358;56.328;43.992;2023-05-09T02:50:58;102222.78;;;4.77;58.51
69247;BME280;56358;56.328;43.992;2023-05-09T02:52:59;102234.03;;;4.87;58.38
69247;BME280;56358;56.328;43.992;2023-05-09T02:54:59;102242.63;;;4.97;58.73
69247;BME280;56358;56.328;43.992;2023-05-09T02:57:00;102235.56;;;4.97;59.56
69247;BME280;56358;56.328;43.992;2023-05-09T02:59:01;102239.69;;;5.08;60.74
69247;BME280;56358;56.328;43.992;2023-05-09T03:01:01;102251.13;;;5.11;61.25
69247;BME280;56358;56.328;43.992;2023-05-09T03:03:02;102238.53;;;5.18;61.64
69247;BME280;56358;56.328;43.992;2023-05-09T03:05:03;102238.44;;;5.23;61.87
69247;BME280;56358;56.328;43.992;2023-05-09T03:07:06;102246.28;;;5.27;61.75
69247;BME280;56358;56.328;43.992;2023-05-09T03:09:07;102254.13;;;5.32;61.53
69247;BME280;56358;56.328;43.992;2023-05-09T03:11:07;102252.19;;;5.37;61.36
69247;BME280;56358;56.328;43.992;2023-05-09T03:13:08;102248.47;;;5.44;61.16
69247;BME280;56358;56.328;43.992;2023-05-09T03:15:09;102250.03;;;5.51;60.63
69247;BME280;56358;56.328;43.992;2023-05-09T03:17:10;102247.16;;;5.59;60.24
69247;BME280;56358;56.328;43.992;2023-05-09T03:19:11;102240.94;;;5.60;60.11
69247;BME280;56358;56.328;43.992;2023-05-09T03:21:12;102251.25;;;5.71;59.80
69247;BME280;56358;56.328;43.992;2023-05-09T03:23:12;102252.06;;;5.75;59.26
69247;BME280;56358;56.328;43.992;2023-05-09T03:25:13;102256.31;;;5.80;59.00
69247;BME280;56358;56.328;43.992;2023-05-09T03:27:14;102255.25;;;5.86;58.73
69247;BME280;56358;56.328;43.992;2023-05-09T03:29:15;102248.78;;;5.95;57.94
69247;BME280;56358;56.328;43.992;2023-05-09T03:31:15;102233.47;;;6.03;56.66
69247;BME280;56358;56.328;43.992;2023-05-09T03:33:17;102233.31;;;6.08;54.34
69247;BME280;56358;56.328;43.992;2023-05-09T03:35:17;102244.31;;;6.25;53.29
69247;BME280;56358;56.328;43.992;2023-05-09T03:37:18;102230.94;;;6.28;52.17
69247;BME280;56358;56.328;43.992;2023-05-09T03:39:19;102236.59;;;6.44;48.44
69247;BME280;56358;56.328;43.992;2023-05-09T03:41:20;102246.94;;;6.55;48.43
69247;BME280;56358;56.328;43.992;2023-05-09T03:43:20;102236.78;;;6.66;46.85
69247;BME280;56358;56.328;43.992;2023-05-09T03:45:21;102242.72;;;6.75;46.90
69247;BME280;56358;56.328;43.992;2023-05-09T03:47:22;102251.28;;;6.84;47.04
69247;BME280;56358;56.328;43.992;2023-05-09T03:49:23;102258.03;;;6.95;46.57
69247;BME280;56358;56.328;43.992;2023-05-09T03:51:23;102240.09;;;7.00;45.62
69247;BME280;56358;56.328;43.992;2023-05-09T03:53:24;102241.34;;;7.15;45.21
69247;BME280;56358;56.328;43.992;2023-05-09T03:55:25;102198.53;;;6.94;43.55
69247;BME280;56358;56.328;43.992;2023-05-09T03:57:26;102258.53;;;7.31;44.07
69247;BME280;56358;56.328;43.992;2023-05-09T03:59:26;102252.94;;;7.39;43.14
69247;BME280;56358;56.328;43.992;2023-05-09T04:01:27;102249.88;;;7.50;43.63
69247;BME280;56358;56.328;43.992;2023-05-09T04:03:28;102258.59;;;7.55;43.78
69247;BME280;56358;56.328;43.992;2023-05-09T04:05:29;102170.44;;;7.09;43.38
69247;BME280;56358;56.328;43.992;2023-05-09T04:07:30;102256.50;;;7.63;44.05
69247;BME280;56358;56.328;43.992;2023-05-09T04:09:30;102240.63;;;7.60;44.24
69247;BME280;56358;56.328;43.992;2023-05-09T04:11:31;102197.59;;;7.44;43.94
69247;BME280;56358;56.328;43.992;2023-05-09T04:13:32;102230.16;;;7.78;43.90
69247;BME280;56358;56.328;43.992;2023-05-09T04:15:33;102248.09;;;7.98;44.17
69247;BME280;56358;56.328;43.992;2023-05-09T04:17:34;102227.72;;;7.95;43.46
69247;BME280;56358;56.328;43.992;2023-05-09T04:19:34;102250.03;;;8.16;43.05
69247;BME280;56358;56.328;43.992;2023-05-09T04:21:35;102192.44;;;7.87;42.71
69247;BME280;56358;56.328;43.992;2023-05-09T04:23:37;102260.00;;;8.35;42.71
69247;BME280;56358;56.328;43.992;2023-05-09T04:25:38;102256.22;;;8.41;42.47
69247;BME280;56358;56.328;43.992;2023-05-09T04:27:39;102250.72;;;8.45;42.07
69247;BME280;56358;56.328;43.992;2023-05-09T04:29:40;102249.59;;;8.51;42.03
69247;BME280;56358;56.328;43.992;2023-05-09T04:31:41;102238.09;;;8.49;41.23
69247;BME280;56358;56.328;43.992;2023-05-09T04:33:42;102251.56;;;8.68;41.09
69247;BME280;56358;56.328;43.992;2023-05-09T04:35:43;102242.22;;;8.78;41.09
69247;BME280;56358;56.328;43.992;2023-05-09T04:37:44;102183.78;;;8.48;40.86
69247;BME280;56358;56.328;43.992;2023-05-09T04:39:45;102192.00;;;8.64;40.62
69247;BME280;56358;56.328;43.992;2023-05-09T04:41:46;102254.16;;;9.12;40.81
69247;BME280;56358;56.328;43.992;2023-05-09T04:43:47;102230.41;;;9.04;40.21
69247;BME280;56358;56.328;43.992;2023-05-09T04:45:48;102139.94;;;8.52;40.20
69247;BME280;56358;56.328;43.992;2023-05-09T04:47:48;102199.03;;;8.87;39.92
69247;BME280;56358;56.328;43.992;2023-05-09T04:49:49;102257.38;;;9.20;39.19
69247;BME280;56358;56.328;43.992;2023-05-09T04:51:50;102253.13;;;9.15;39.10
69247;BME280;56358;56.328;43.992;2023-05-09T04:53:51;102258.38;;;9.18;39.65
69247;BME280;56358;56.328;43.992;2023-05-09T04:55:51;102268.47;;;9.32;40.23
69247;BME280;56358;56.328;43.992;2023-05-09T04:57:52;102250.31;;;9.38;40.46
69247;BME280;56358;56.328;43.992;2023-05-09T04:59:53;102255.19;;;9.49;39.73
69247;BME280;56358;56.328;43.992;2023-05-09T05:01:54;102260.22;;;9.57;39.77
69247;BME280;56358;56.328;43.992;2023-05-09T05:03:54;102251.91;;;9.63;39.43
69247;BME280;56358;56.328;43.992;2023-05-09T05:05:55;102256.19;;;9.67;38.94
69247;BME280;56358;56.328;43.992;2023-05-09T05:07:56;102254.88;;;9.76;38.84
69247;BME280;56358;56.328;43.992;2023-05-09T05:09:56;102254.59;;;9.82;38.24
69247;BME280;56358;56.328;43.992;2023-05-09T05:11:57;102238.31;;;9.87;38.58
69247;BME280;56358;56.328;43.992;2023-05-09T05:13:58;102250.19;;;10.00;38.25
69247;BME280;56358;56.328;43.992;2023-05-09T05:15:58;102231.13;;;10.06;37.98
69247;BME280;56358;56.328;43.992;2023-05-09T05:17:59;102237.94;;;10.14;37.87
69247;BME280;56358;56.328;43.992;2023-05-09T05:20:00;102239.16;;;10.26;36.85
69247;BME280;56358;56.328;43.992;2023-05-09T05:22:01;102242.00;;;10.22;35.84
69247;BME280;56358;56.328;43.992;2023-05-09T05:24:02;102257.06;;;10.44;35.68
69247;BME280;56358;56.328;43.992;2023-05-09T05:26:02;102175.59;;;10.10;36.35
69247;BME280;56358;56.328;43.992;2023-05-09T05:28:03;102234.06;;;10.57;36.45
69247;BME280;56358;56.328;43.992;2023-05-09T05:30:04;102231.72;;;10.69;36.45
69247;BME280;56358;56.328;43.992;2023-05-09T05:32:06;102234.16;;;10.73;35.52
69247;BME280;56358;56.328;43.992;2023-05-09T05:34:07;102177.66;;;10.42;35.20
69247;BME280;56358;56.328;43.992;2023-05-09T05:36:08;102151.94;;;10.37;35.00
69247;BME280;56358;56.328;43.992;2023-05-09T05:38:09;102228.06;;;10.87;35.10
69247;BME280;56358;56.328;43.992;2023-05-09T05:40:10;102244.59;;;10.97;35.35
69247;BME280;56358;56.328;43.992;2023-05-09T05:42:10;102110.28;;;10.30;35.26
69247;BME280;56358;56.328;43.992;2023-05-09T05:44:11;102173.56;;;10.69;34.67
69247;BME280;56358;56.328;43.992;2023-05-09T05:46:12;102239.44;;;11.10;34.41
69247;BME280;56358;56.328;43.992;2023-05-09T05:48:12;102244.41;;;11.18;34.73
69247;BME280;56358;56.328;43.992;2023-05-09T05:50:13;102242.59;;;11.18;34.38
69247;BME280;56358;56.328;43.992;2023-05-09T05:52:14;102234.88;;;11.12;35.26
69247;BME280;56358;56.328;43.992;2023-05-09T05:54:15;102253.28;;;11.20;36.74
69247;BME280;56358;56.328;43.992;2023-05-09T05:56:15;102241.66;;;11.19;36.54
69247;BME280;56358;56.328;43.992;2023-05-09T05:58:16;102247.50;;;11.10;35.66
69247;BME280;56358;56.328;43.992;2023-05-09T06:00:17;102178.63;;;10.76;35.81
69247;BME280;56358;56.328;43.992;2023-05-09T06:02:18;102240.78;;;11.19;35.55
69247;BME280;56358;56.328;43.992;2023-05-09T06:04:18;102200.53;;;11.01;35.81
69247;BME280;56358;56.328;43.992;2023-05-09T06:06:21;102163.00;;;10.84;35.11
69247;BME280;56358;56.328;43.992;2023-05-09T06:08:22;102155.16;;;10.79;34.72
69247;BME280;56358;56.328;43.992;2023-05-09T06:10:23;102235.16;;;11.23;34.16
69247;BME280;56358;56.328;43.992;2023-05-09T06:12:23;102225.06;;;11.29;34.22
69247;BME280;56358;56.328;43.992;2023-05-09T06:14:24;102223.72;;;11.37;33.68
69247;BME280;56358;56.328;43.992;2023-05-09T06:16:25;102229.63;;;11.44;33.21
69247;BME280;56358;56.328;43.992;2023-05-09T06:18:26;102231.00;;;11.51;33.57
69247;BME280;56358;56.328;43.992;2023-05-09T06:20:26;102240.63;;;11.55;33.41
69247;BME280;56358;56.328;43.992;2023-05-09T06:22:27;102227.56;;;11.65;33.12
69247;BME280;56358;56.328;43.992;2023-05-09T06:24:28;102206.25;;;11.62;33.14
69247;BME280;56358;56.328;43.992;2023-05-09T06:26:28;102206.69;;;11.70;31.36
69247;BME280;56358;56.328;43.992;2023-05-09T06:28:29;102145.34;;;11.47;31.04
69247;BME280;56358;56.328;43.992;2023-05-09T06:30:30;102214.19;;;11.97;30.94
69247;BME280;56358;56.328;43.992;2023-05-09T06:32:31;102223.56;;;12.06;31.13
69247;BME280;56358;56.328;43.992;2023-05-09T06:34:32;102205.53;;;12.08;31.35
69247;BME280;56358;56.328;43.992;2023-05-09T06:36:33;102197.97;;;12.15;30.02
69247;BME280;56358;56.328;43.992;2023-05-09T06:38:34;102222.88;;;12.34;29.99
69247;BME280;56358;56.328;43.992;2023-05-09T06:40:35;102138.25;;;11.94;30.09
69247;BME280;56358;56.328;43.992;2023-05-09T06:42:36;102214.47;;;12.40;29.84
69247;BME280;56358;56.328;43.992;2023-05-09T06:44:36;102198.56;;;12.36;29.21
69247;BME280;56358;56.328;43.992;2023-05-09T06:46:37;102222.25;;;12.45;29.27
69247;BME280;56358;56.328;43.992;2023-05-09T06:48:38;102120.72;;;12.02;29.44
69247;BME280;56358;56.328;43.992;2023-05-09T06:50:38;102183.53;;;12.48;28.58
69247;BME280;56358;56.328;43.992;2023-05-09T06:52:39;102200.88;;;12.58;28.66
69247;BME280;56358;56.328;43.992;2023-05-09T06:54:40;102198.44;;;12.53;28.89
69247;BME280;56358;56.328;43.992;2023-05-09T06:56:41;102128.78;;;12.18;28.45
69247;BME280;56358;56.328;43.992;2023-05-09T06:58:42;102211.50;;;12.76;28.59
69247;BME280;56358;56.328;43.992;2023-05-09T07:00:43;102202.50;;;12.91;28.03
69247;BME280;56358;56.328;43.992;2023-05-09T07:02:43;102199.06;;;13.03;27.34
69247;BME280;56358;56.328;43.992;2023-05-09T07:04:44;102206.66;;;13.11;24.74
69247;BME280;56358;56.328;43.992;2023-05-09T07:06:45;102181.78;;;13.07;23.68
69247;BME280;56358;56.328;43.992;2023-05-09T07:08:45;102137.66;;;12.65;23.19
69247;BME280;56358;56.328;43.992;2023-05-09T07:10:46;102181.44;;;12.98;23.87
69247;BME280;56358;56.328;43.992;2023-05-09T07:12:47;102191.28;;;13.13;24.17
69247;BME280;56358;56.328;43.992;2023-05-09T07:14:47;102184.06;;;13.14;23.31
69247;BME280;56358;56.328;43.992;2023-05-09T07:16:48;102168.31;;;13.22;23.67
69247;BME280;56358;56.328;43.992;2023-05-09T07:18:49;102170.25;;;13.34;23.93
69247;BME280;56358;56.328;43.992;2023-05-09T07:20:49;102134.72;;;12.99;24.01
69247;BME280;56358;56.328;43.992;2023-05-09T07:22:51;102192.03;;;13.15;24.78
69247;BME280;56358;56.328;43.992;2023-05-09T07:24:51;102172.34;;;13.15;25.17
69247;BME280;56358;56.328;43.992;2023-05-09T07:26:52;102115.13;;;12.97;24.90
69247;BME280;56358;56.328;43.992;2023-05-09T07:28:53;102173.72;;;13.51;24.46
69247;BME280;56358;56.328;43.992;2023-05-09T07:30:56;102159.41;;;13.50;23.82
69247;BME280;56358;56.328;43.992;2023-05-09T07:32:56;102180.56;;;13.56;24.14
69247;BME280;56358;56.328;43.992;2023-05-09T07:34:57;102115.91;;;13.28;24.43
69247;BME280;56358;56.328;43.992;2023-05-09T07:36:58;102178.53;;;13.74;24.46
69247;BME280;56358;56.328;43.992;2023-05-09T07:38:59;102106.25;;;13.52;24.08
69247;BME280;56358;56.328;43.992;2023-05-09T07:41:00;102164.09;;;14.03;24.08
69247;BME280;56358;56.328;43.992;2023-05-09T07:43:01;102155.75;;;14.20;23.78
69247;BME280;56358;56.328;43.992;2023-05-09T07:45:02;102160.56;;;14.42;23.48
69247;BME280;56358;56.328;43.992;2023-05-09T07:47:07;102137.09;;;14.57;23.60
69247;BME280;56358;56.328;43.992;2023-05-09T07:49:08;102096.16;;;14.51;23.45
69247;BME280;56358;56.328;43.992;2023-05-09T07:51:09;102157.44;;;14.89;22.92
69247;BME280;56358;56.328;43.992;2023-05-09T07:53:10;102166.19;;;14.80;22.58
69247;BME280;56358;56.328;43.992;2023-05-09T07:55:11;102158.22;;;14.91;22.50
69247;BME280;56358;56.328;43.992;2023-05-09T07:57:11;102150.31;;;15.01;23.07
69247;BME280;56358;56.328;43.992;2023-05-09T07:59:12;102094.22;;;14.53;22.95
69247;BME280;56358;56.328;43.992;2023-05-09T08:01:13;102154.84;;;14.87;23.25
69247;BME280;56358;56.328;43.992;2023-05-09T08:03:14;102141.34;;;14.87;23.04
69247;BME280;56358;56.328;43.992;2023-05-09T08:05:15;102153.13;;;14.99;22.98
69247;BME280;56358;56.328;43.992;2023-05-09T08:07:15;102144.06;;;15.00;22.95
69247;BME280;56358;56.328;43.992;2023-05-09T08:09:16;102059.66;;;14.45;22.75
69247;BME280;56358;56.328;43.992;2023-05-09T08:11:17;102136.19;;;15.10;23.17
69247;BME280;56358;56.328;43.992;2023-05-09T08:13:18;102138.53;;;15.15;22.42
69247;BME280;56358;56.328;43.992;2023-05-09T08:15:19;102084.22;;;14.94;22.93
69247;BME280;56358;56.328;43.992;2023-05-09T08:17:20;102145.00;;;15.38;22.44
69247;BME280;56358;56.328;43.992;2023-05-09T08:19:21;102129.38;;;15.67;22.12
69247;BME280;56358;56.328;43.992;2023-05-09T08:21:23;102114.63;;;15.84;22.08
69247;BME280;56358;56.328;43.992;2023-05-09T08:23:24;102129.03;;;16.09;22.01
69247;BME280;56358;56.328;43.992;2023-05-09T08:25:25;102114.50;;;15.86;22.28
69247;BME280;56358;56.328;43.992;2023-05-09T08:27:26;102127.59;;;15.92;22.17
69247;BME280;56358;56.328;43.992;2023-05-09T08:29:27;102134.31;;;16.11;21.88
69247;BME280;56358;56.328;43.992;2023-05-09T08:31:28;102115.22;;;16.01;21.43
69247;BME280;56358;56.328;43.992;2023-05-09T08:33:29;102112.69;;;15.73;22.32
69247;BME280;56358;56.328;43.992;2023-05-09T08:35:30;102113.16;;;15.67;22.38
69247;BME280;56358;56.328;43.992;2023-05-09T08:37:30;102108.56;;;15.44;22.18
69247;BME280;56358;56.328;43.992;2023-05-09T08:39:31;102055.28;;;14.70;22.88
69247;BME280;56358;56.328;43.992;2023-05-09T08:41:34;102114.91;;;14.93;23.11
69247;BME280;56358;56.328;43.992;2023-05-09T08:43:36;102113.25;;;14.77;22.27
69247;BME280;56358;56.328;43.992;2023-05-09T08:45:51;102100.22;;;14.71;23.26
69247;BME280;56358;56.328;43.992;2023-05-09T08:47:54;102094.91;;;14.69;22.98
69247;BME280;56358;56.328;43.992;2023-05-09T08:49:55;102090.94;;;14.75;22.72
69247;BME280;56358;56.328;43.992;2023-05-09T08:51:56;102071.44;;;14.57;22.98
69247;BME280;56358;56.328;43.992;2023-05-09T08:53:58;102076.84;;;14.44;22.85
69247;BME280;56358;56.328;43.992;2023-05-09T08:55:59;102085.66;;;14.46;23.29
69247;BME280;56358;56.328;43.992;2023-05-09T08:58:03;102072.63;;;14.53;23.28
69247;BME280;56358;56.328;43.992;2023-05-09T09:00:04;102084.09;;;14.69;23.29
69247;BME280;56358;56.328;43.992;2023-05-09T09:02:09;102060.91;;;14.67;23.18
69247;BME280;56358;56.328;43.992;2023-05-09T09:04:13;102062.94;;;14.63;22.76
69247;BME280;56358;56.328;43.992;2023-05-09T09:06:18;102067.09;;;14.54;23.29
69247;BME280;56358;56.328;43.992;2023-05-09T09:08:21;102074.88;;;14.46;22.95
69247;BME280;56358;56.328;43.992;2023-05-09T09:10:23;102080.72;;;14.53;23.36
69247;BME280;56358;56.328;43.992;2023-05-09T09:12:26;102048.75;;;14.59;23.85
69247;BME280;56358;56.328;43.992;2023-05-09T09:14:27;102044.16;;;14.74;23.12
69247;BME280;56358;56.328;43.992;2023-05-09T09:16:32;102068.72;;;15.21;23.51
69247;BME280;56358;56.328;43.992;2023-05-09T09:18:34;102054.47;;;15.56;22.70
69247;BME280;56358;56.328;43.992;2023-05-09T09:20:56;102060.47;;;15.73;21.92
69247;BME280;56358;56.328;43.992;2023-05-09T09:23:03;102047.03;;;15.84;22.03
69247;BME280;56358;56.328;43.992;2023-05-09T09:25:05;102048.81;;;16.32;21.45
69247;BME280;56358;56.328;43.992;2023-05-09T09:27:06;102035.22;;;16.79;21.26
69247;BME280;56358;56.328;43.992;2023-05-09T09:29:07;102049.72;;;17.46;20.88
69247;BME280;56358;56.328;43.992;2023-05-09T09:31:22;102039.72;;;17.90;19.33
69247;BME280;56358;56.328;43.992;2023-05-09T09:33:24;102032.19;;;18.26;19.54
69247;BME280;56358;56.328;43.992;2023-05-09T09:35:25;102037.31;;;18.72;18.72
69247;BME280;56358;56.328;43.992;2023-05-09T09:37:26;102041.41;;;19.18;18.91
69247;BME280;56358;56.328;43.992;2023-05-09T09:39:26;102030.59;;;19.67;18.04
69247;BME280;56358;56.328;43.992;2023-05-09T09:41:35;102027.34;;;20.13;17.64
69247;BME280;56358;56.328;43.992;2023-05-09T09:43:36;102031.66;;;20.05;17.49
69247;BME280;56358;56.328;43.992;2023-05-09T09:45:40;102016.28;;;19.55;17.89
69247;BME280;56358;56.328;43.992;2023-05-09T09:47:42;102032.22;;;19.19;18.66
69247;BME280;56358;56.328;43.992;2023-05-09T09:49:45;102048.78;;;19.06;18.64
69247;BME280;56358;56.328;43.992;2023-05-09T09:51:50;102034.31;;;18.75;19.26
69247;BME280;56358;56.328;43.992;2023-05-09T09:53:51;102031.91;;;18.82;19.07
69247;BME280;56358;56.328;43.992;2023-05-09T09:55:52;102028.03;;;18.74;19.09
69247;BME280;56358;56.328;43.992;2023-05-09T09:57:53;102027.72;;;18.68;19.60
69247;BME280;56358;56.328;43.992;2023-05-09T09:59:58;102029.25;;;18.61;19.38
69247;BME280;56358;56.328;43.992;2023-05-09T10:02:03;102022.97;;;18.39;19.26
69247;BME280;56358;56.328;43.992;2023-05-09T10:04:04;102028.09;;;18.63;19.49
69247;BME280;56358;56.328;43.992;2023-05-09T10:06:12;101975.97;;;18.38;19.12
69247;BME280;56358;56.328;43.992;2023-05-09T10:08:13;102023.53;;;18.00;19.45
69247;BME280;56358;56.328;43.992;2023-05-09T10:10:13;102019.63;;;17.61;20.14
69247;BME280;56358;56.328;43.992;2023-05-09T10:12:16;102019.75;;;17.04;21.31
69247;BME280;56358;56.328;43.992;2023-05-09T10:14:24;102036.53;;;16.62;21.42
69247;BME280;56358;56.328;43.992;2023-05-09T10:16:25;101964.81;;;15.87;21.69
69247;BME280;56358;56.328;43.992;2023-05-09T10:18:27;102026.75;;;17.18;20.54
69247;BME280;56358;56.328;43.992;2023-05-09T10:20:29;102020.59;;;18.03;20.55
69247;BME280;56358;56.328;43.992;2023-05-09T10:22:33;102021.31;;;19.00;19.02
69247;BME280;56358;56.328;43.992;2023-05-09T10:26:48;102022.44;;;20.36;17.59
69247;BME280;56358;56.328;43.992;2023-05-09T10:28:50;101958.84;;;20.65;16.98
69247;BME280;56358;56.328;43.992;2023-05-09T10:33:29;102006.38;;;22.00;16.12
69247;BME280;56358;56.328;43.992;2023-05-09T10:35:35;101995.78;;;21.79;16.28
69247;BME280;56358;56.328;43.992;2023-05-09T10:37:36;102005.84;;;22.40;15.67
69247;BME280;56358;56.328;43.992;2023-05-09T10:39:37;102013.88;;;23.03;15.35
69247;BME280;56358;56.328;43.992;2023-05-09T10:41:39;101991.31;;;23.76;15.35
69247;BME280;56358;56.328;43.992;2023-05-09T10:43:39;102004.47;;;24.39;14.70